sensor_id;sensor_type;location;lat;lon;timestamp;P1;durP1;ratioP1;P2;durP2;ratioP2
49440;SDS011;35317;51.978;6.296;2023-04-08T00:01:42;35.70;;;5.85;;
49440;SDS011;35317;51.978;6.296;2023-04-08T00:06:43;20.00;;;6.35;;
49440;SDS011;35317;51.978;6.296;2023-04-08T00:11:44;21.73;;;6.13;;
49440;SDS011;35317;51.978;6.296;2023-04-08T00:16:45;12.57;;;5.63;;
49440;SDS011;35317;51.978;6.296;2023-04-08T00:21:46;18.27;;;5.47;;
49440;SDS011;35317;51.978;6.296;2023-04-08T00:26:47;30.08;;;6.05;;
49440;SDS011;35317;51.978;6.296;2023-04-08T00:31:48;12.52;;;5.03;;
49440;SDS011;35317;51.978;6.296;2023-04-08T00:36:49;14.43;;;5.38;;
49440;SDS011;35317;51.978;6.296;2023-04-08T00:41:50;13.63;;;5.45;;
49440;SDS011;35317;51.978;6.296;2023-04-08T00:46:50;13.75;;;5.70;;
49440;SDS011;35317;51.978;6.296;2023-04-08T00:51:52;13.55;;;5.30;;
49440;SDS011;35317;51.978;6.296;2023-04-08T00:56:54;21.73;;;5.13;;
49440;SDS011;35317;51.978;6.296;2023-04-08T01:02:41;18.00;;;5.85;;
49440;SDS011;35317;51.978;6.296;2023-04-08T01:07:43;13.63;;;5.45;;
49440;SDS011;35317;51.978;6.296;2023-04-08T01:12:48;25.55;;;5.68;;
49440;SDS011;35317;51.978;6.296;2023-04-08T01:17:58;15.90;;;6.00;;
49440;SDS011;35317;51.978;6.296;2023-04-08T01:23:30;11.95;;;5.60;;
49440;SDS011;35317;51.978;6.296;2023-04-08T01:28:40;16.75;;;5.57;;
49440;SDS011;35317;51.978;6.296;2023-04-08T01:33:43;19.73;;;6.13;;
49440;SDS011;35317;51.978;6.296;2023-04-08T01:38:46;21.63;;;5.85;;
49440;SDS011;35317;51.978;6.296;2023-04-08T01:43:48;11.30;;;5.95;;
49440;SDS011;35317;51.978;6.296;2023-04-08T01:48:49;22.98;;;5.65;;
49440;SDS011;35317;51.978;6.296;2023-04-08T01:53:51;9.85;;;5.35;;
49440;SDS011;35317;51.978;6.296;2023-04-08T01:58:52;10.68;;;4.88;;
49440;SDS011;35317;51.978;6.296;2023-04-08T02:03:55;9.85;;;5.80;;
49440;SDS011;35317;51.978;6.296;2023-04-08T02:08:58;10.82;;;5.07;;
49440;SDS011;35317;51.978;6.296;2023-04-08T02:13:59;13.75;;;4.97;;
49440;SDS011;35317;51.978;6.296;2023-04-08T02:19:47;14.48;;;5.18;;
49440;SDS011;35317;51.978;6.296;2023-04-08T02:24:30;18.75;;;6.38;;
49440;SDS011;35317;51.978;6.296;2023-04-08T02:29:32;9.63;;;5.72;;
49440;SDS011;35317;51.978;6.296;2023-04-08T02:34:35;12.05;;;5.90;;
49440;SDS011;35317;51.978;6.296;2023-04-08T02:39:39;14.25;;;5.88;;
49440;SDS011;35317;51.978;6.296;2023-04-08T02:44:40;10.98;;;5.80;;
49440;SDS011;35317;51.978;6.296;2023-04-08T02:49:41;7.85;;;5.00;;
49440;SDS011;35317;51.978;6.296;2023-04-08T02:54:41;8.55;;;4.95;;
49440;SDS011;35317;51.978;6.296;2023-04-08T02:59:42;13.57;;;5.03;;
49440;SDS011;35317;51.978;6.296;2023-04-08T03:04:43;9.05;;;5.50;;
49440;SDS011;35317;51.978;6.296;2023-04-08T03:09:44;7.65;;;4.90;;
49440;SDS011;35317;51.978;6.296;2023-04-08T03:14:45;23.73;;;5.47;;
49440;SDS011;35317;51.978;6.296;2023-04-08T03:19:46;10.00;;;4.90;;
49440;SDS011;35317;51.978;6.296;2023-04-08T03:24:47;11.70;;;5.40;;
49440;SDS011;35317;51.978;6.296;2023-04-08T03:29:47;8.90;;;5.07;;
49440;SDS011;35317;51.978;6.296;2023-04-08T03:34:48;6.85;;;4.50;;
49440;SDS011;35317;51.978;6.296;2023-04-08T03:39:50;8.30;;;5.13;;
49440;SDS011;35317;51.978;6.296;2023-04-08T03:44:51;11.02;;;5.68;;
49440;SDS011;35317;51.978;6.296;2023-04-08T03:49:52;11.52;;;5.18;;
49440;SDS011;35317;51.978;6.296;2023-04-08T03:54:56;9.88;;;5.35;;
49440;SDS011;35317;51.978;6.296;2023-04-08T03:59:56;9.18;;;5.18;;
49440;SDS011;35317;51.978;6.296;2023-04-08T04:04:58;10.27;;;5.47;;
49440;SDS011;35317;51.978;6.296;2023-04-08T04:09:58;10.38;;;6.10;;
49440;SDS011;35317;51.978;6.296;2023-04-08T04:14:59;10.35;;;6.05;;
49440;SDS011;35317;51.978;6.296;2023-04-08T04:20:02;10.60;;;5.90;;
49440;SDS011;35317;51.978;6.296;2023-04-08T04:25:05;12.30;;;6.15;;
49440;SDS011;35317;51.978;6.296;2023-04-08T04:30:07;10.98;;;5.80;;
49440;SDS011;35317;51.978;6.296;2023-04-08T04:35:11;11.30;;;6.30;;
49440;SDS011;35317;51.978;6.296;2023-04-08T04:40:12;9.48;;;5.38;;
49440;SDS011;35317;51.978;6.296;2023-04-08T04:45:13;11.25;;;6.22;;
49440;SDS011;35317;51.978;6.296;2023-04-08T04:50:14;12.85;;;6.05;;
49440;SDS011;35317;51.978;6.296;2023-04-08T04:55:16;13.40;;;6.35;;
49440;SDS011;35317;51.978;6.296;2023-04-08T05:00:17;14.18;;;6.43;;
49440;SDS011;35317;51.978;6.296;2023-04-08T05:05:18;16.05;;;7.22;;
49440;SDS011;35317;51.978;6.296;2023-04-08T05:10:18;14.07;;;6.93;;
49440;SDS011;35317;51.978;6.296;2023-04-08T05:15:35;12.38;;;6.90;;
49440;SDS011;35317;51.978;6.296;2023-04-08T05:20:37;18.45;;;6.45;;
49440;SDS011;35317;51.978;6.296;2023-04-08T05:25:38;16.17;;;7.50;;
49440;SDS011;35317;51.978;6.296;2023-04-08T05:30:42;12.60;;;6.97;;
49440;SDS011;35317;51.978;6.296;2023-04-08T05:35:48;15.18;;;6.70;;
49440;SDS011;35317;51.978;6.296;2023-04-08T05:40:49;14.57;;;7.07;;
49440;SDS011;35317;51.978;6.296;2023-04-08T05:45:50;15.35;;;7.18;;
49440;SDS011;35317;51.978;6.296;2023-04-08T05:50:51;19.58;;;7.57;;
49440;SDS011;35317;51.978;6.296;2023-04-08T05:55:52;20.17;;;7.88;;
49440;SDS011;35317;51.978;6.296;2023-04-08T06:00:53;17.20;;;8.60;;
49440;SDS011;35317;51.978;6.296;2023-04-08T06:05:54;19.77;;;7.35;;
49440;SDS011;35317;51.978;6.296;2023-04-08T06:10:55;21.73;;;8.63;;
49440;SDS011;35317;51.978;6.296;2023-04-08T06:15:56;18.63;;;8.27;;
49440;SDS011;35317;51.978;6.296;2023-04-08T06:20:57;17.60;;;7.55;;
49440;SDS011;35317;51.978;6.296;2023-04-08T06:31:24;17.52;;;8.00;;
49440;SDS011;35317;51.978;6.296;2023-04-08T06:36:25;24.00;;;7.93;;
49440;SDS011;35317;51.978;6.296;2023-04-08T06:41:27;23.80;;;8.80;;
49440;SDS011;35317;51.978;6.296;2023-04-08T06:46:28;20.63;;;8.88;;
49440;SDS011;35317;51.978;6.296;2023-04-08T06:51:28;18.27;;;8.50;;
49440;SDS011;35317;51.978;6.296;2023-04-08T06:56:30;20.52;;;8.25;;
49440;SDS011;35317;51.978;6.296;2023-04-08T07:01:31;16.42;;;8.60;;
49440;SDS011;35317;51.978;6.296;2023-04-08T07:06:31;14.70;;;7.43;;
49440;SDS011;35317;51.978;6.296;2023-04-08T07:11:32;16.42;;;7.40;;
49440;SDS011;35317;51.978;6.296;2023-04-08T07:16:33;10.93;;;6.38;;
49440;SDS011;35317;51.978;6.296;2023-04-08T07:21:34;19.70;;;6.90;;
49440;SDS011;35317;51.978;6.296;2023-04-08T07:26:37;16.75;;;7.22;;
49440;SDS011;35317;51.978;6.296;2023-04-08T07:31:37;13.98;;;7.00;;
49440;SDS011;35317;51.978;6.296;2023-04-08T07:36:42;16.65;;;7.25;;
49440;SDS011;35317;51.978;6.296;2023-04-08T07:41:43;16.10;;;7.18;;
49440;SDS011;35317;51.978;6.296;2023-04-08T07:46:44;15.88;;;6.95;;
49440;SDS011;35317;51.978;6.296;2023-04-08T07:51:45;16.92;;;6.85;;
49440;SDS011;35317;51.978;6.296;2023-04-08T07:56:46;11.93;;;6.13;;
49440;SDS011;35317;51.978;6.296;2023-04-08T08:01:47;11.40;;;6.05;;
49440;SDS011;35317;51.978;6.296;2023-04-08T08:06:47;10.93;;;6.28;;
49440;SDS011;35317;51.978;6.296;2023-04-08T08:11:49;10.73;;;6.03;;
49440;SDS011;35317;51.978;6.296;2023-04-08T08:16:53;9.85;;;5.95;;
49440;SDS011;35317;51.978;6.296;2023-04-08T08:21:57;11.40;;;5.45;;
49440;SDS011;35317;51.978;6.296;2023-04-08T08:26:58;10.45;;;5.93;;
49440;SDS011;35317;51.978;6.296;2023-04-08T08:31:59;10.48;;;6.60;;
49440;SDS011;35317;51.978;6.296;2023-04-08T08:37:00;12.07;;;6.63;;
49440;SDS011;35317;51.978;6.296;2023-04-08T08:42:01;11.80;;;6.57;;
49440;SDS011;35317;51.978;6.296;2023-04-08T08:47:03;10.85;;;6.38;;
49440;SDS011;35317;51.978;6.296;2023-04-08T08:52:04;13.32;;;7.28;;
49440;SDS011;35317;51.978;6.296;2023-04-08T08:57:15;13.25;;;6.93;;
49440;SDS011;35317;51.978;6.296;2023-04-08T09:02:23;12.95;;;6.47;;
49440;SDS011;35317;51.978;6.296;2023-04-08T09:07:34;10.43;;;6.28;;
49440;SDS011;35317;51.978;6.296;2023-04-08T09:12:39;9.45;;;5.82;;
49440;SDS011;35317;51.978;6.296;2023-04-08T09:17:54;9.73;;;5.90;;
49440;SDS011;35317;51.978;6.296;2023-04-08T09:22:59;9.57;;;5.22;;
49440;SDS011;35317;51.978;6.296;2023-04-08T09:28:01;8.15;;;4.50;;
49440;SDS011;35317;51.978;6.296;2023-04-08T09:33:02;7.85;;;5.05;;
49440;SDS011;35317;51.978;6.296;2023-04-08T09:38:06;9.50;;;5.00;;
49440;SDS011;35317;51.978;6.296;2023-04-08T09:43:07;7.10;;;4.65;;
49440;SDS011;35317;51.978;6.296;2023-04-08T09:48:11;6.82;;;4.57;;
49440;SDS011;35317;51.978;6.296;2023-04-08T09:53:19;7.03;;;4.38;;
49440;SDS011;35317;51.978;6.296;2023-04-08T09:58:38;7.32;;;4.43;;
49440;SDS011;35317;51.978;6.296;2023-04-08T10:03:53;5.47;;;4.15;;
49440;SDS011;35317;51.978;6.296;2023-04-08T10:08:56;7.93;;;3.83;;
49440;SDS011;35317;51.978;6.296;2023-04-08T10:13:58;5.68;;;3.80;;
49440;SDS011;35317;51.978;6.296;2023-04-08T10:18:59;5.80;;;3.65;;
49440;SDS011;35317;51.978;6.296;2023-04-08T10:24:00;5.25;;;3.80;;
49440;SDS011;35317;51.978;6.296;2023-04-08T10:34:18;6.20;;;4.05;;
49440;SDS011;35317;51.978;6.296;2023-04-08T10:39:23;5.93;;;3.63;;
49440;SDS011;35317;51.978;6.296;2023-04-08T10:44:25;6.43;;;3.77;;
49440;SDS011;35317;51.978;6.296;2023-04-08T10:49:32;4.50;;;3.50;;
49440;SDS011;35317;51.978;6.296;2023-04-08T10:54:34;5.07;;;3.53;;
49440;SDS011;35317;51.978;6.296;2023-04-08T10:59:36;5.15;;;3.45;;
49440;SDS011;35317;51.978;6.296;2023-04-08T11:04:40;6.63;;;3.72;;
49440;SDS011;35317;51.978;6.296;2023-04-08T11:09:42;4.65;;;3.25;;
49440;SDS011;35317;51.978;6.296;2023-04-08T11:14:43;4.88;;;3.40;;
49440;SDS011;35317;51.978;6.296;2023-04-08T11:19:44;5.07;;;3.60;;
49440;SDS011;35317;51.978;6.296;2023-04-08T11:24:46;5.40;;;3.30;;
49440;SDS011;35317;51.978;6.296;2023-04-08T11:29:47;6.70;;;4.07;;
49440;SDS011;35317;51.978;6.296;2023-04-08T11:34:49;5.70;;;4.10;;
49440;SDS011;35317;51.978;6.296;2023-04-08T11:39:51;5.53;;;4.03;;
49440;SDS011;35317;51.978;6.296;2023-04-08T11:44:56;5.60;;;4.05;;
49440;SDS011;35317;51.978;6.296;2023-04-08T11:49:57;6.75;;;4.03;;
49440;SDS011;35317;51.978;6.296;2023-04-08T11:54:58;6.43;;;4.28;;
49440;SDS011;35317;51.978;6.296;2023-04-08T11:59:59;6.18;;;4.30;;
49440;SDS011;35317;51.978;6.296;2023-04-08T12:05:00;8.93;;;4.50;;
49440;SDS011;35317;51.978;6.296;2023-04-08T12:10:01;6.68;;;4.63;;
49440;SDS011;35317;51.978;6.296;2023-04-08T12:15:02;7.25;;;4.95;;
49440;SDS011;35317;51.978;6.296;2023-04-08T12:20:04;5.57;;;4.57;;
49440;SDS011;35317;51.978;6.296;2023-04-08T12:25:06;7.18;;;4.88;;
49440;SDS011;35317;51.978;6.296;2023-04-08T12:30:08;6.93;;;4.82;;
49440;SDS011;35317;51.978;6.296;2023-04-08T12:35:09;7.10;;;4.53;;
49440;SDS011;35317;51.978;6.296;2023-04-08T12:40:10;7.22;;;4.68;;
49440;SDS011;35317;51.978;6.296;2023-04-08T12:45:11;7.18;;;5.28;;
49440;SDS011;35317;51.978;6.296;2023-04-08T12:50:21;6.85;;;5.07;;
49440;SDS011;35317;51.978;6.296;2023-04-08T13:01:20;7.63;;;5.38;;
49440;SDS011;35317;51.978;6.296;2023-04-08T13:06:20;7.47;;;4.95;;
49440;SDS011;35317;51.978;6.296;2023-04-08T13:11:22;8.30;;;5.25;;
49440;SDS011;35317;51.978;6.296;2023-04-08T13:16:24;8.05;;;5.65;;
49440;SDS011;35317;51.978;6.296;2023-04-08T13:21:26;8.27;;;6.20;;
49440;SDS011;35317;51.978;6.296;2023-04-08T13:26:30;9.35;;;5.35;;
49440;SDS011;35317;51.978;6.296;2023-04-08T13:31:31;7.72;;;5.30;;
49440;SDS011;35317;51.978;6.296;2023-04-08T13:36:33;9.77;;;6.20;;
49440;SDS011;35317;51.978;6.296;2023-04-08T13:47:04;9.45;;;6.43;;
49440;SDS011;35317;51.978;6.296;2023-04-08T13:52:05;9.55;;;6.05;;
49440;SDS011;35317;51.978;6.296;2023-04-08T13:57:14;11.48;;;7.03;;
49440;SDS011;35317;51.978;6.296;2023-04-08T14:02:17;11.15;;;6.70;;
49440;SDS011;35317;51.978;6.296;2023-04-08T14:07:17;11.73;;;7.20;;
49440;SDS011;35317;51.978;6.296;2023-04-08T14:12:24;12.98;;;7.00;;
49440;SDS011;35317;51.978;6.296;2023-04-08T14:17:25;10.40;;;6.30;;
49440;SDS011;35317;51.978;6.296;2023-04-08T14:22:36;10.80;;;7.07;;
49440;SDS011;35317;51.978;6.296;2023-04-08T14:27:50;9.80;;;6.63;;
49440;SDS011;35317;51.978;6.296;2023-04-08T14:32:51;11.90;;;7.78;;
49440;SDS011;35317;51.978;6.296;2023-04-08T14:37:52;11.60;;;7.53;;
49440;SDS011;35317;51.978;6.296;2023-04-08T14:42:53;12.88;;;7.25;;
49440;SDS011;35317;51.978;6.296;2023-04-08T14:47:55;11.55;;;6.90;;
49440;SDS011;35317;51.978;6.296;2023-04-08T14:52:56;9.63;;;6.40;;
49440;SDS011;35317;51.978;6.296;2023-04-08T14:58:05;10.55;;;6.68;;
49440;SDS011;35317;51.978;6.296;2023-04-08T15:03:05;11.40;;;6.93;;
49440;SDS011;35317;51.978;6.296;2023-04-08T15:08:07;10.57;;;6.65;;
49440;SDS011;35317;51.978;6.296;2023-04-08T15:13:08;10.32;;;6.30;;
49440;SDS011;35317;51.978;6.296;2023-04-08T15:18:11;9.98;;;6.60;;
49440;SDS011;35317;51.978;6.296;2023-04-08T15:28:43;10.25;;;6.95;;
49440;SDS011;35317;51.978;6.296;2023-04-08T15:39:13;10.57;;;7.38;;
49440;SDS011;35317;51.978;6.296;2023-04-08T15:44:17;13.50;;;9.02;;
49440;SDS011;35317;51.978;6.296;2023-04-08T15:49:17;11.20;;;7.55;;
49440;SDS011;35317;51.978;6.296;2023-04-08T15:54:18;11.90;;;8.18;;
49440;SDS011;35317;51.978;6.296;2023-04-08T15:59:19;13.82;;;8.10;;
49440;SDS011;35317;51.978;6.296;2023-04-08T16:04:20;12.68;;;7.68;;
49440;SDS011;35317;51.978;6.296;2023-04-08T16:09:21;12.75;;;7.93;;
49440;SDS011;35317;51.978;6.296;2023-04-08T16:14:28;13.57;;;8.32;;
49440;SDS011;35317;51.978;6.296;2023-04-08T16:19:29;12.02;;;8.20;;
49440;SDS011;35317;51.978;6.296;2023-04-08T16:24:33;15.93;;;8.80;;
49440;SDS011;35317;51.978;6.296;2023-04-08T16:29:37;15.25;;;8.93;;
49440;SDS011;35317;51.978;6.296;2023-04-08T16:34:38;14.05;;;8.70;;
49440;SDS011;35317;51.978;6.296;2023-04-08T16:39:39;13.68;;;9.27;;
49440;SDS011;35317;51.978;6.296;2023-04-08T16:44:40;15.68;;;8.82;;
49440;SDS011;35317;51.978;6.296;2023-04-08T16:49:42;14.35;;;9.30;;
49440;SDS011;35317;51.978;6.296;2023-04-08T16:55:10;16.90;;;9.68;;
49440;SDS011;35317;51.978;6.296;2023-04-08T17:00:10;15.18;;;9.52;;
49440;SDS011;35317;51.978;6.296;2023-04-08T17:05:13;17.08;;;9.68;;
49440;SDS011;35317;51.978;6.296;2023-04-08T17:10:14;14.80;;;8.20;;
49440;SDS011;35317;51.978;6.296;2023-04-08T17:15:15;17.40;;;10.13;;
49440;SDS011;35317;51.978;6.296;2023-04-08T17:20:19;18.40;;;10.18;;
49440;SDS011;35317;51.978;6.296;2023-04-08T17:25:22;14.57;;;8.70;;
49440;SDS011;35317;51.978;6.296;2023-04-08T17:30:25;17.88;;;9.45;;
49440;SDS011;35317;51.978;6.296;2023-04-08T17:35:34;16.98;;;9.23;;
49440;SDS011;35317;51.978;6.296;2023-04-08T17:40:35;18.15;;;9.80;;
49440;SDS011;35317;51.978;6.296;2023-04-08T17:45:38;19.77;;;10.25;;
49440;SDS011;35317;51.978;6.296;2023-04-08T17:50:39;18.90;;;10.50;;
49440;SDS011;35317;51.978;6.296;2023-04-08T17:55:40;21.02;;;10.48;;
49440;SDS011;35317;51.978;6.296;2023-04-08T18:00:41;17.42;;;9.68;;
49440;SDS011;35317;51.978;6.296;2023-04-08T18:05:43;21.98;;;11.50;;
49440;SDS011;35317;51.978;6.296;2023-04-08T18:11:12;19.05;;;10.30;;
49440;SDS011;35317;51.978;6.296;2023-04-08T18:16:14;22.23;;;10.85;;
49440;SDS011;35317;51.978;6.296;2023-04-08T18:21:37;18.05;;;10.15;;
49440;SDS011;35317;51.978;6.296;2023-04-08T18:32:12;23.65;;;11.85;;
49440;SDS011;35317;51.978;6.296;2023-04-08T18:37:12;23.30;;;10.65;;
49440;SDS011;35317;51.978;6.296;2023-04-08T18:42:17;20.73;;;9.85;;
49440;SDS011;35317;51.978;6.296;2023-04-08T18:47:17;21.17;;;10.35;;
49440;SDS011;35317;51.978;6.296;2023-04-08T18:52:52;23.40;;;10.73;;
49440;SDS011;35317;51.978;6.296;2023-04-08T18:57:53;24.85;;;11.68;;
49440;SDS011;35317;51.978;6.296;2023-04-08T19:02:55;21.65;;;10.13;;
49440;SDS011;35317;51.978;6.296;2023-04-08T19:13:47;19.30;;;9.20;;
49440;SDS011;35317;51.978;6.296;2023-04-08T19:18:47;20.45;;;9.77;;
49440;SDS011;35317;51.978;6.296;2023-04-08T19:24:03;22.42;;;10.48;;
49440;SDS011;35317;51.978;6.296;2023-04-08T19:29:14;22.20;;;10.60;;
49440;SDS011;35317;51.978;6.296;2023-04-08T19:34:15;21.67;;;10.48;;
49440;SDS011;35317;51.978;6.296;2023-04-08T19:39:16;25.67;;;11.13;;
49440;SDS011;35317;51.978;6.296;2023-04-08T19:44:18;20.50;;;10.02;;
49440;SDS011;35317;51.978;6.296;2023-04-08T19:49:19;23.85;;;10.57;;
49440;SDS011;35317;51.978;6.296;2023-04-08T19:54:22;23.90;;;10.52;;
49440;SDS011;35317;51.978;6.296;2023-04-08T19:59:23;22.10;;;10.57;;
49440;SDS011;35317;51.978;6.296;2023-04-08T20:04:25;24.33;;;10.55;;
49440;SDS011;35317;51.978;6.296;2023-04-08T20:09:30;23.60;;;10.45;;
49440;SDS011;35317;51.978;6.296;2023-04-08T20:14:32;26.13;;;11.35;;
49440;SDS011;35317;51.978;6.296;2023-04-08T20:19:34;24.55;;;11.30;;
49440;SDS011;35317;51.978;6.296;2023-04-08T20:24:35;25.33;;;11.10;;
49440;SDS011;35317;51.978;6.296;2023-04-08T20:29:36;23.27;;;9.70;;
49440;SDS011;35317;51.978;6.296;2023-04-08T20:34:36;23.05;;;10.95;;
49440;SDS011;35317;51.978;6.296;2023-04-08T20:39:37;24.95;;;11.50;;
49440;SDS011;35317;51.978;6.296;2023-04-08T20:44:38;26.15;;;11.75;;
49440;SDS011;35317;51.978;6.296;2023-04-08T20:49:39;26.88;;;11.38;;
49440;SDS011;35317;51.978;6.296;2023-04-08T20:54:41;26.98;;;11.35;;
49440;SDS011;35317;51.978;6.296;2023-04-08T20:59:41;23.27;;;9.82;;
49440;SDS011;35317;51.978;6.296;2023-04-08T21:04:42;23.48;;;10.73;;
49440;SDS011;35317;51.978;6.296;2023-04-08T21:09:45;22.30;;;11.10;;
49440;SDS011;35317;51.978;6.296;2023-04-08T21:14:56;23.58;;;11.00;;
49440;SDS011;35317;51.978;6.296;2023-04-08T21:19:57;19.35;;;10.77;;
49440;SDS011;35317;51.978;6.296;2023-04-08T21:24:58;22.55;;;10.48;;
49440;SDS011;35317;51.978;6.296;2023-04-08T21:30:11;20.40;;;9.73;;
49440;SDS011;35317;51.978;6.296;2023-04-08T21:40:35;19.33;;;9.77;;
49440;SDS011;35317;51.978;6.296;2023-04-08T21:45:35;22.38;;;10.57;;
49440;SDS011;35317;51.978;6.296;2023-04-08T21:50:48;20.95;;;10.73;;
49440;SDS011;35317;51.978;6.296;2023-04-08T21:55:49;22.75;;;10.55;;
49440;SDS011;35317;51.978;6.296;2023-04-08T22:00:50;23.05;;;11.15;;
49440;SDS011;35317;51.978;6.296;2023-04-08T22:05:52;22.02;;;10.95;;
49440;SDS011;35317;51.978;6.296;2023-04-08T22:10:53;23.15;;;11.43;;
49440;SDS011;35317;51.978;6.296;2023-04-08T22:15:54;22.00;;;10.07;;
49440;SDS011;35317;51.978;6.296;2023-04-08T22:20:54;22.65;;;10.45;;
49440;SDS011;35317;51.978;6.296;2023-04-08T22:25:56;22.58;;;11.10;;
49440;SDS011;35317;51.978;6.296;2023-04-08T22:30:57;19.70;;;10.05;;
49440;SDS011;35317;51.978;6.296;2023-04-08T22:35:58;25.63;;;10.52;;
49440;SDS011;35317;51.978;6.296;2023-04-08T22:40:58;24.63;;;12.07;;
49440;SDS011;35317;51.978;6.296;2023-04-08T22:45:59;21.65;;;10.20;;
49440;SDS011;35317;51.978;6.296;2023-04-08T22:51:00;23.42;;;10.70;;
49440;SDS011;35317;51.978;6.296;2023-04-08T22:56:01;23.50;;;11.57;;
49440;SDS011;35317;51.978;6.296;2023-04-08T23:01:13;23.88;;;11.38;;
49440;SDS011;35317;51.978;6.296;2023-04-08T23:06:16;22.20;;;11.30;;
49440;SDS011;35317;51.978;6.296;2023-04-08T23:11:16;24.00;;;11.48;;
49440;SDS011;35317;51.978;6.296;2023-04-08T23:16:17;20.80;;;10.57;;
49440;SDS011;35317;51.978;6.296;2023-04-08T23:21:18;25.27;;;10.82;;
49440;SDS011;35317;51.978;6.296;2023-04-08T23:26:20;23.90;;;11.10;;
49440;SDS011;35317;51.978;6.296;2023-04-08T23:31:21;22.38;;;11.20;;
49440;SDS011;35317;51.978;6.296;2023-04-08T23:36:22;23.38;;;11.50;;
49440;SDS011;35317;51.978;6.296;2023-04-08T23:41:22;21.15;;;10.23;;
49440;SDS011;35317;51.978;6.296;2023-04-08T23:46:23;24.45;;;10.95;;
49440;SDS011;35317;51.978;6.296;2023-04-08T23:51:24;22.85;;;11.30;;
49440;SDS011;35317;51.978;6.296;2023-04-08T23:56:25;21.70;;;10.85;;
